Time;durP1;ratioP1;P1;durP2;ratioP2;P2;SDS_P1;SDS_P2;PMS_P1;PMS_P2;Temp;Humidity;BMP_temperature;BMP_pressure;BME280_temperature;BME280_humidity;BME280_pressure;Samples;Min_cycle;Max_cycle;Signal;HPM_P1;HPM_P2
2022/05/24 00:00:01;;;;;;;4.77;3.87;;;;;;;18.69;66.86;99095.84;5050176;28;20189;-56
2022/05/24 00:02:27;;;;;;;11.20;4.23;;;;;;;18.62;66.98;99096.03;5050172;28;20227;-57
2022/05/24 00:04:55;;;;;;;6.20;3.60;;;;;;;18.57;67.41;99109.13;5049964;28;20220;-57
2022/05/24 00:07:22;;;;;;;7.65;3.80;;;;;;;18.64;67.22;99102.03;5049097;28;20432;-57
2022/05/24 00:09:49;;;;;;;6.70;4.30;;;;;;;18.59;67.11;99096.09;5050234;28;20192;-57
2022/05/24 00:12:16;;;;;;;8.43;4.93;;;;;;;18.56;67.27;99093.56;5050080;28;20200;-57
2022/05/24 00:17:27;;;;;;;9.60;4.30;;;;;;;18.47;67.93;99091.13;5049961;28;20199;-57
2022/05/24 00:19:55;;;;;;;4.27;3.87;;;;;;;18.47;68.08;99098.94;5049775;28;20200;-57
2022/05/24 00:22:22;;;;;;;6.27;4.40;;;;;;;18.49;67.98;99105.84;5049999;28;20192;-57
2022/05/24 00:24:48;;;;;;;5.45;4.60;;;;;;;18.54;67.72;99100.56;5049420;28;20939;-57
2022/05/24 00:27:15;;;;;;;4.47;4.10;;;;;;;18.51;67.65;99103.22;5050800;28;20662;-57
2022/05/24 00:29:42;;;;;;;8.13;4.10;;;;;;;18.49;67.80;99102.38;5053715;28;20654;-57
2022/05/24 00:32:09;;;;;;;4.23;3.83;;;;;;;18.49;67.71;99092.81;5053777;28;20188;-57
2022/05/24 00:34:36;;;;;;;10.17;4.57;;;;;;;18.49;67.95;99103.22;5053747;28;20610;-57
2022/05/24 00:37:04;;;;;;;6.00;3.87;;;;;;;18.47;67.81;99101.53;5053820;28;20199;-56
2022/05/24 00:39:31;;;;;;;6.73;4.17;;;;;;;18.49;67.64;99104.97;5053429;28;20224;-57
2022/05/24 00:42:03;;;;;;;10.30;3.83;;;;;;;18.52;67.46;99097.09;5053628;28;20203;-57
2022/05/24 00:44:34;;;;;;;5.43;4.37;;;;;;;18.55;67.21;99097.03;5053968;28;20219;-58
2022/05/24 00:47:04;;;;;;;7.30;4.33;;;;;;;18.57;67.15;99097.88;5053722;28;20203;-57
2022/05/24 00:49:36;;;;;;;5.37;4.00;;;;;;;18.49;67.45;99104.97;5053639;28;20197;-55
2022/05/24 00:52:08;;;;;;;5.17;3.93;;;;;;;18.48;67.43;99101.53;5053538;28;20663;-56
2022/05/24 00:54:35;;;;;;;6.43;4.25;;;;;;;18.51;67.45;99096.28;5052783;28;20442;-57
2022/05/24 00:57:11;;;;;;;5.07;4.30;;;;;;;18.50;66.99;99091.09;5053477;28;20196;-57
2022/05/24 00:59:45;;;;;;;6.63;4.10;;;;;;;18.41;67.16;99086.03;5053505;28;20207;-56
2022/05/24 01:02:13;;;;;;;6.53;4.50;;;;;;;18.40;67.29;99089.56;5053362;28;20196;-56
2022/05/24 01:04:39;;;;;;;9.27;5.53;;;;;;;18.42;67.39;99096.44;5053000;28;20459;-56
2022/05/24 01:07:08;;;;;;;7.93;3.93;;;;;;;18.40;67.17;99095.63;5053094;28;20196;-57
2022/05/24 01:09:42;;;;;;;4.90;3.70;;;;;;;18.25;67.73;99083.78;5053157;28;20197;-56
2022/05/24 01:12:14;;;;;;;8.33;4.50;;;;;;;18.31;67.79;99094.94;5053096;28;20195;-57
2022/05/24 01:14:42;;;;;;;7.37;4.20;;;;;;;18.17;67.67;99059.69;5053048;28;20626;-56
2022/05/24 01:17:09;;;;;;;6.87;4.17;;;;;;;18.23;68.21;99084.72;5052922;28;20275;-56
2022/05/24 01:19:41;;;;;;;5.87;3.80;;;;;;;18.18;67.99;99089.97;5053012;28;20740;-56
2022/05/24 01:22:38;;;;;;;4.00;3.50;;;;;;;18.11;68.31;99093.63;5053223;28;20201;-57
2022/05/24 01:25:09;;;;;;;7.60;4.13;;;;;;;18.06;68.72;99095.47;5049879;28;20220;-55
2022/05/24 01:27:38;;;;;;;4.23;3.57;;;;;;;18.00;68.78;99095.56;5052886;28;20235;-56
2022/05/24 01:30:06;;;;;;;5.97;3.50;;;;;;;17.99;69.21;99095.63;5052537;28;20203;-57
2022/05/24 01:38:04;;;;;;;4.93;3.93;;;;;;;18.04;68.70;99094.66;5052818;28;20551;-57
2022/05/24 01:40:31;;;;;;;5.43;4.33;;;;;;;18.03;68.75;99098.13;5051808;28;20236;-57
2022/05/24 01:43:00;;;;;;;4.03;3.63;;;;;;;17.87;69.21;99075.91;5052821;28;20192;-57
2022/05/24 01:45:32;;;;;;;4.37;4.00;;;;;;;17.97;68.98;99095.63;5052489;28;20220;-57
2022/05/24 01:48:04;;;;;;;4.87;4.20;;;;;;;17.95;69.05;99105.22;5052325;28;20724;-56
2022/05/24 01:50:32;;;;;;;5.50;4.17;;;;;;;17.92;69.03;99094.88;5052379;28;20188;-57
2022/05/24 01:53:04;;;;;;;6.38;4.30;;;;;;;17.90;69.31;99094.06;5052104;28;20917;-57
2022/05/24 01:55:34;;;;;;;6.83;4.30;;;;;;;17.91;69.25;99100.94;5052092;28;20191;-57
2022/05/24 01:58:07;;;;;;;8.57;3.90;;;;;;;17.92;69.23;99092.28;5052263;28;20718;-56
2022/05/24 02:00:35;;;;;;;5.90;4.07;;;;;;;17.96;69.47;99095.69;5052146;28;20200;-57
2022/05/24 02:03:02;;;;;;;4.93;4.18;;;;;;;18.00;69.17;99098.19;5051839;28;20945;-56
2022/05/24 02:05:31;;;;;;;7.30;4.20;;;;;;;17.99;68.91;99096.44;5051908;28;20223;-56
2022/05/24 02:07:58;;;;;;;5.70;4.30;;;;;;;18.05;68.57;99105.88;5052027;28;20234;-56
2022/05/24 02:10:25;;;;;;;9.43;4.60;;;;;;;18.09;68.58;99112.75;5052332;28;20254;-57
2022/05/24 02:12:55;;;;;;;9.30;4.30;;;;;;;18.00;68.32;99085.19;5052085;28;20200;-57
2022/05/24 02:15:27;;;;;;;5.43;4.23;;;;;;;18.11;68.03;99111.81;5052058;28;20205;-57
2022/05/24 02:18:00;;;;;;;5.13;4.20;;;;;;;18.16;68.06;99117.78;5051852;28;20601;-57
2022/05/24 02:20:30;;;;;;;7.53;3.67;;;;;;;18.15;68.12;99116.09;5051793;28;20654;-57
2022/05/24 02:22:58;;;;;;;8.65;4.35;;;;;;;18.22;67.99;99117.66;5051336;28;20463;-56
2022/05/24 02:25:30;;;;;;;6.80;4.30;;;;;;;18.25;67.29;99114.13;5051768;28;20223;-56
2022/05/24 02:27:57;;;;;;;5.47;4.13;;;;;;;18.22;67.19;99112.47;5051716;28;20245;-56
2022/05/24 02:30:28;;;;;;;6.90;4.33;;;;;;;18.18;67.64;99120.38;5051578;28;20193;-56
2022/05/24 02:32:55;;;;;;;8.20;4.50;;;;;;;18.13;67.96;99116.97;5050983;28;20510;-56
2022/05/24 02:35:22;;;;;;;6.43;4.57;;;;;;;18.13;67.86;99119.56;5051653;28;20230;-56
2022/05/24 02:37:49;;;;;;;7.40;5.17;;;;;;;18.12;68.10;99118.75;5051253;28;20188;-56
2022/05/24 02:43:00;;;;;;;9.20;5.30;;;;;;;18.01;67.65;99125.91;5051569;28;20186;-57
2022/05/24 02:45:28;;;;;;;8.50;5.53;;;;;;;17.97;68.47;99128.56;5051194;28;20212;-57
2022/05/24 02:47:56;;;;;;;5.63;5.20;;;;;;;17.98;68.01;99128.56;5051179;28;20202;-57
2022/05/24 02:50:23;;;;;;;10.50;5.70;;;;;;;18.02;68.58;99124.16;5051088;28;20202;-56
2022/05/24 02:52:50;;;;;;;9.32;5.35;;;;;;;18.06;68.67;99131.84;5050320;28;20446;-56
2022/05/24 02:55:17;;;;;;;5.27;4.87;;;;;;;18.09;67.74;99134.41;5051114;28;20568;-56
2022/05/24 02:57:44;;;;;;;7.20;4.70;;;;;;;18.00;67.51;99131.09;5051298;28;20196;-57
2022/05/24 03:00:14;;;;;;;7.43;4.50;;;;;;;18.00;68.27;99134.56;5051266;28;20279;-57
2022/05/24 03:02:43;;;;;;;5.68;4.63;;;;;;;17.91;68.54;99124.34;5056954;28;20461;-56
2022/05/24 03:05:12;;;;;;;5.13;4.20;;;;;;;18.02;68.13;99132.78;5070430;28;20203;-56
2022/05/24 03:10:23;;;;;;;5.07;4.63;;;;;;;18.01;68.73;99133.69;5070873;28;20194;-56
2022/05/24 03:15:34;;;;;;;6.97;4.13;;;;;;;17.98;67.92;99149.34;5070737;28;20187;-56
2022/05/24 03:18:03;;;;;;;12.40;6.43;;;;;;;17.92;67.80;99141.66;5070418;28;20282;-56
2022/05/24 03:20:29;;;;;;;8.40;6.15;;;;;;;17.88;67.98;99149.56;5069786;28;20444;-56
2022/05/24 03:22:56;;;;;;;7.10;5.83;;;;;;;17.92;68.00;99146.00;5070903;28;20555;-56
2022/05/24 03:25:23;;;;;;;7.00;6.30;;;;;;;17.91;68.05;99142.53;5070637;28;20220;-56
2022/05/24 03:27:50;;;;;;;8.73;6.17;;;;;;;17.80;67.90;99128.06;5070738;28;20199;-56
2022/05/24 03:30:18;;;;;;;9.18;6.55;;;;;;;18.00;67.65;99147.56;5070176;28;20912;-56
2022/05/24 03:32:45;;;;;;;11.07;8.37;;;;;;;18.12;67.19;99141.28;5070513;28;20673;-56
2022/05/24 03:35:13;;;;;;;8.03;7.23;;;;;;;18.23;67.18;99147.13;5070725;28;20199;-57
2022/05/24 03:37:40;;;;;;;10.73;8.15;;;;;;;18.35;66.56;99151.22;5070085;28;20434;-57
2022/05/24 03:40:08;;;;;;;14.00;12.33;;;;;;;18.46;66.30;99149.25;5070343;28;20614;-57
2022/05/24 03:42:35;;;;;;;14.73;13.10;;;;;;;18.53;65.63;99153.47;5070363;28;20229;-55
2022/05/24 03:45:02;;;;;;;13.80;9.50;;;;;;;18.38;66.11;99158.94;5070276;28;20642;-55
2022/05/24 03:47:29;;;;;;;10.77;9.87;;;;;;;18.35;66.39;99146.03;5070145;28;20202;-56
2022/05/24 03:49:55;;;;;;;9.77;8.67;;;;;;;18.46;66.28;99151.88;5068000;28;20646;-56
2022/05/24 03:52:24;;;;;;;8.67;5.87;;;;;;;18.41;65.90;99149.34;5069202;28;20199;-56
2022/05/24 03:54:50;;;;;;;6.70;5.70;;;;;;;18.31;66.21;99146.97;5070266;28;20187;-56
2022/05/24 04:00:01;;;;;;;8.53;5.47;;;;;;;18.34;66.83;99154.72;5070079;28;20265;-56
2022/05/24 04:02:28;;;;;;;6.77;5.80;;;;;;;18.37;66.85;99159.84;5073224;28;20678;-57
2022/05/24 04:04:55;;;;;;;9.80;5.97;;;;;;;18.40;66.71;99165.84;5076779;28;20712;-57
2022/05/24 04:07:22;;;;;;;7.67;5.30;;;;;;;18.44;66.44;99166.63;5076789;28;20191;-57
2022/05/24 04:09:50;;;;;;;7.40;5.17;;;;;;;18.37;66.82;99168.50;5076920;28;20205;-62
2022/05/24 04:12:17;;;;;;;6.37;5.33;;;;;;;18.43;66.05;99170.97;5077110;28;20574;-63
2022/05/24 04:14:43;;;;;;;7.47;4.93;;;;;;;18.35;66.36;99159.88;5077151;28;20194;-62
2022/05/24 04:17:10;;;;;;;9.50;5.07;;;;;;;18.45;65.80;99158.81;5076978;28;20214;-62
2022/05/24 04:19:37;;;;;;;9.00;5.60;;;;;;;18.51;65.89;99168.25;5077299;28;20535;-63
2022/05/24 04:22:04;;;;;;;7.87;5.20;;;;;;;18.60;65.67;99179.31;5077206;28;20196;-62
2022/05/24 04:24:31;;;;;;;9.68;5.70;;;;;;;18.68;65.46;99171.34;5076718;28;20437;-62
2022/05/24 04:26:59;;;;;;;11.33;5.20;;;;;;;18.70;64.74;99170.44;5077356;28;20198;-63
2022/05/24 04:29:26;;;;;;;7.20;5.17;;;;;;;18.67;64.69;99180.06;5077019;28;20198;-62
2022/05/24 04:31:53;;;;;;;5.97;4.72;;;;;;;18.69;64.65;99173.06;5076267;28;20804;-62
2022/05/24 04:34:19;;;;;;;11.23;5.37;;;;;;;18.70;64.42;99172.19;5077245;28;20218;-62
2022/05/24 04:36:46;;;;;;;8.73;4.77;;;;;;;18.39;65.11;99169.34;5077161;28;20210;-63
2022/05/24 04:39:15;;;;;;;7.23;4.87;;;;;;;18.48;65.16;99171.78;5076931;28;20230;-60
2022/05/24 04:44:27;;;;;;;8.63;4.77;;;;;;;18.57;65.01;99165.53;5076771;28;20186;-62
2022/05/24 04:47:10;;;;;;;6.47;4.37;;;;;;;18.59;64.78;99169.81;5076845;28;20215;-61
2022/05/24 04:49:38;;;;;;;7.10;4.87;;;;;;;18.66;64.98;99173.13;5076612;28;20565;-62
2022/05/24 04:52:07;;;;;;;6.65;4.85;;;;;;;18.82;64.38;99177.09;5070588;28;20473;-63
2022/05/24 04:54:34;;;;;;;4.30;3.90;;;;;;;18.99;63.66;99175.00;5078007;28;20190;-63
2022/05/24 04:57:01;;;;;;;5.33;4.80;;;;;;;19.17;63.50;99177.16;5075658;28;20689;-57
2022/05/24 04:59:29;;;;;;;7.73;4.43;;;;;;;19.28;62.85;99176.94;5075690;28;20183;-56
2022/05/24 05:01:56;;;;;;;7.10;4.87;;;;;;;19.24;62.99;99170.06;5075328;28;20194;-56
2022/05/24 05:04:24;;;;;;;6.03;4.47;;;;;;;19.47;62.14;99180.84;5078576;28;20222;-56
2022/05/24 05:06:51;;;;;;;6.43;5.13;;;;;;;19.68;62.31;99189.84;5075766;28;20745;-56
2022/05/24 05:09:20;;;;;;;9.35;4.60;;;;;;;19.93;61.83;99196.16;5075513;28;20437;-56
2022/05/24 05:11:47;;;;;;;5.03;4.50;;;;;;;20.02;60.57;99199.34;5076207;28;20199;-56
2022/05/24 05:14:14;;;;;;;5.57;4.27;;;;;;;20.12;59.63;99193.91;5072840;28;20192;-57
2022/05/24 05:16:42;;;;;;;5.87;4.27;;;;;;;20.00;60.10;99195.94;5072875;28;20188;-59
2022/05/24 05:19:11;;;;;;;7.32;4.75;;;;;;;20.19;59.73;99185.88;5072465;28;20438;-57
2022/05/24 05:21:40;;;;;;;6.27;4.30;;;;;;;20.24;59.03;99191.88;5071638;28;20445;-57
2022/05/24 05:24:08;;;;;;;7.80;4.70;;;;;;;20.41;58.79;99196.59;5072226;28;20442;-57
2022/05/24 05:26:35;;;;;;;6.93;4.20;;;;;;;20.50;58.67;99191.97;5071909;28;20870;-57
2022/05/24 05:29:02;;;;;;;4.30;3.90;;;;;;;20.62;57.49;99182.09;5072471;28;20195;-57
2022/05/24 05:31:28;;;;;;;7.30;4.60;;;;;;;20.30;58.28;99176.03;5072358;28;20191;-57
2022/05/24 05:33:57;;;;;;;6.13;4.77;;;;;;;20.30;58.81;99162.97;5072205;28;20434;-57
2022/05/24 05:36:27;;;;;;;7.72;4.88;;;;;;;20.31;59.22;99169.06;5072542;28;20858;-57
2022/05/24 05:38:54;;;;;;;7.83;4.60;;;;;;;20.35;58.81;99182.00;5072500;28;20196;-57
2022/05/24 05:41:23;;;;;;;7.17;4.90;;;;;;;20.36;58.68;99172.38;5072541;28;20199;-57
2022/05/24 05:43:50;;;;;;;6.77;5.03;;;;;;;20.59;58.03;99183.91;5072599;28;20200;-57
2022/05/24 05:46:18;;;;;;;7.32;5.00;;;;;;;20.75;57.98;99181.69;5071933;28;20441;-57
2022/05/24 05:48:46;;;;;;;8.17;4.03;;;;;;;20.95;56.28;99183.69;5072237;28;20625;-57
2022/05/24 05:51:16;;;;;;;5.93;4.10;;;;;;;21.00;55.39;99192.25;5072542;28;20195;-58
2022/05/24 05:53:44;;;;;;;7.13;4.20;;;;;;;20.86;55.69;99195.28;5072031;28;20248;-57
2022/05/24 05:56:15;;;;;;;4.63;4.23;;;;;;;20.88;55.02;99187.38;5072294;28;20196;-57
2022/05/24 05:58:42;;;;;;;7.70;4.20;;;;;;;20.83;55.66;99202.34;5071424;28;20554;-57
2022/05/24 06:01:14;;;;;;;8.47;5.07;;;;;;;20.86;55.08;99191.78;5072187;28;20199;-58
2022/05/24 06:03:41;;;;;;;5.20;4.07;;;;;;;20.87;54.99;99191.78;5071443;28;20438;-58
2022/05/24 06:06:10;;;;;;;6.07;4.70;;;;;;;20.97;54.45;99194.94;5071604;28;20273;-58
2022/05/24 06:08:39;;;;;;;7.97;5.10;;;;;;;21.14;54.82;99209.25;5071501;28;20195;-56
2022/05/24 06:11:05;;;;;;;5.50;4.87;;;;;;;21.21;54.48;99209.03;5071230;28;20191;-64
2022/05/24 06:13:33;;;;;;;5.20;4.47;;;;;;;20.86;55.00;99204.84;5071725;28;20210;-56
2022/05/24 06:16:00;;;;;;;6.03;4.75;;;;;;;21.04;54.39;99210.38;5071144;28;20444;-57
2022/05/24 06:18:27;;;;;;;8.30;5.07;;;;;;;20.90;55.16;99204.75;5071716;28;20240;-56
2022/05/24 06:20:54;;;;;;;7.27;5.17;;;;;;;21.02;56.13;99199.13;5071135;28;20593;-56
2022/05/24 06:23:21;;;;;;;8.40;5.67;;;;;;;21.27;55.94;99190.53;5071071;28;20204;-55
2022/05/24 06:25:49;;;;;;;4.43;4.00;;;;;;;21.34;53.96;99197.31;5070575;28;20648;-56
2022/05/24 06:28:17;;;;;;;5.10;4.60;;;;;;;21.11;53.93;99200.63;5071448;28;20222;-56
2022/05/24 06:30:44;;;;;;;4.50;4.10;;;;;;;20.94;54.14;99208.94;5071117;28;20191;-56
2022/05/24 06:33:11;;;;;;;6.53;4.22;;;;;;;20.81;54.92;99215.44;5070613;28;20506;-56
2022/05/24 06:35:40;;;;;;;7.17;3.83;;;;;;;20.98;54.36;99212.34;5071232;28;20563;-55
2022/05/24 06:38:08;;;;;;;7.47;4.30;;;;;;;21.30;53.98;99211.38;5071034;28;20191;-55
2022/05/24 06:40:35;;;;;;;6.13;4.60;;;;;;;21.22;53.40;99206.38;5070875;28;20231;-56
2022/05/24 06:43:03;;;;;;;9.27;4.15;;;;;;;21.31;53.61;99206.09;5070710;28;20394;-56
2022/05/24 06:45:31;;;;;;;9.87;6.17;;;;;;;21.89;52.20;99206.84;5071074;28;20313;-56
2022/05/24 06:47:57;;;;;;;5.60;4.87;;;;;;;22.16;51.15;99206.75;5070902;28;20199;-56
2022/05/24 06:50:25;;;;;;;4.93;4.40;;;;;;;22.23;50.66;99208.22;5070671;28;20195;-56
2022/05/24 06:52:54;;;;;;;7.87;5.47;;;;;;;22.27;51.12;99203.75;5070362;28;20618;-56
2022/05/24 06:55:21;;;;;;;4.33;3.93;;;;;;;22.24;50.67;99189.00;5070346;28;20227;-56
2022/05/24 06:57:48;;;;;;;5.00;4.00;;;;;;;22.41;50.80;99209.34;5070843;28;20223;-62
2022/05/24 07:03:03;;;;;;;7.72;5.95;;;;;;;22.30;50.39;99209.69;5069762;28;20789;-61
2022/05/24 07:05:30;;;;;;;4.90;4.23;;;;;;;22.50;50.75;99214.22;5069925;28;20198;-62
2022/05/24 07:07:58;;;;;;;7.27;5.30;;;;;;;22.36;50.21;99205.19;5070855;28;20220;-63
2022/05/24 07:10:25;;;;;;;4.77;4.00;;;;;;;22.50;49.80;99208.13;5070502;28;20682;-63
2022/05/24 07:12:59;;;;;;;5.07;4.00;;;;;;;22.63;49.96;99202.44;5070564;28;20213;-63
2022/05/24 07:15:28;;;;;;;4.63;4.23;;;;;;;22.37;50.85;99205.09;5070043;28;20175;-62
2022/05/24 07:17:55;;;;;;;5.57;4.80;;;;;;;21.86;51.25;99147.59;5070354;28;20195;-64
2022/05/24 07:20:22;;;;;;;5.60;5.03;;;;;;;22.06;51.48;99217.56;5070146;28;20853;-62
2022/05/24 07:22:49;;;;;;;7.83;4.80;;;;;;;21.75;52.67;99213.31;5070178;28;20196;-61
2022/05/24 07:25:16;;;;;;;5.13;4.73;;;;;;;21.96;51.92;99205.72;5070694;28;20234;-62
2022/05/24 07:27:43;;;;;;;4.77;4.27;;;;;;;21.84;51.79;99209.56;5069931;28;20310;-62
2022/05/24 07:30:11;;;;;;;6.30;4.67;;;;;;;21.81;52.22;99199.19;5070392;28;20264;-63
2022/05/24 07:32:39;;;;;;;9.73;6.87;;;;;;;22.13;52.28;99208.59;5070835;28;20248;-63
2022/05/24 07:35:07;;;;;;;8.30;4.97;;;;;;;21.93;52.08;99208.41;5070124;28;20582;-56
2022/05/24 07:37:33;;;;;;;7.00;5.37;;;;;;;21.86;52.60;99193.81;5069122;28;20183;-61
2022/05/24 07:48:14;;;;;;;6.33;4.50;;;;;;;21.99;51.81;99185.53;5070067;28;20198;-62
2022/05/24 07:50:41;;;;;;;8.57;6.73;;;;;;;22.16;52.28;99187.56;5070111;28;20267;-62
2022/05/24 07:53:09;;;;;;;8.90;6.93;;;;;;;22.26;51.93;99189.78;5069944;28;20191;-62
2022/05/24 07:55:35;;;;;;;7.17;4.30;;;;;;;22.13;52.18;99187.66;5069405;28;20223;-62
2022/05/24 07:58:02;;;;;;;8.10;4.50;;;;;;;22.00;52.79;99191.63;5069716;28;20195;-62
2022/05/24 08:00:29;;;;;;;8.00;4.87;;;;;;;22.06;51.68;99191.38;5069510;28;20264;-62
2022/05/24 08:02:56;;;;;;;5.33;4.60;;;;;;;22.16;51.89;99187.56;5069582;28;20195;-62
2022/05/24 08:05:24;;;;;;;6.43;5.60;;;;;;;22.41;50.84;99201.47;5069550;28;20183;-63
2022/05/24 08:07:54;;;;;;;7.10;5.30;;;;;;;22.64;50.15;99191.03;5069253;28;20356;-63
2022/05/24 08:10:21;;;;;;;9.20;5.33;;;;;;;22.67;50.68;99196.16;5069545;28;20673;-63
2022/05/24 08:12:48;;;;;;;8.50;5.13;;;;;;;22.80;50.51;99183.44;5069541;28;20191;-63
2022/05/24 08:15:15;;;;;;;12.73;5.37;;;;;;;22.98;49.55;99193.22;5069725;28;20194;-62
2022/05/24 08:17:42;;;;;;;7.70;4.97;;;;;;;23.21;49.22;99190.53;5069477;28;20187;-63
2022/05/24 08:20:10;;;;;;;5.17;4.70;;;;;;;23.01;49.19;99192.25;5069274;28;20195;-62
2022/05/24 08:22:39;;;;;;;8.47;4.90;;;;;;;23.00;48.74;99188.78;5069118;28;20195;-56
2022/05/24 08:25:08;;;;;;;9.63;6.90;;;;;;;23.00;48.81;99175.66;5068906;28;20570;-56
2022/05/24 08:27:35;;;;;;;5.77;4.20;;;;;;;23.13;48.50;99162.97;5068986;28;20305;-57
2022/05/24 08:30:02;;;;;;;8.48;5.72;;;;;;;23.33;48.53;99176.97;5068960;28;20362;-56
2022/05/24 08:32:29;;;;;;;7.67;4.57;;;;;;;23.27;48.51;99168.47;5068840;28;20191;-57
2022/05/24 08:34:55;;;;;;;7.30;4.50;;;;;;;23.45;47.77;99144.16;5069195;28;20199;-56
2022/05/24 08:37:22;;;;;;;10.37;6.60;;;;;;;23.77;47.07;99134.94;5068947;28;20187;-56
2022/05/24 08:39:50;;;;;;;11.63;5.20;;;;;;;23.58;47.49;99086.78;5068731;28;20232;-56
2022/05/24 08:42:26;;;;;;;6.77;5.53;;;;;;;23.92;47.77;99132.53;5068086;28;20502;-57
2022/05/24 08:50:34;;;;;;;6.93;4.43;;;;;;;23.81;46.16;99147.03;5071976;28;20570;-56
2022/05/24 08:53:08;;;;;;;5.17;4.40;;;;;;;23.83;46.50;99151.28;5071646;28;20191;-56
2022/05/24 08:55:38;;;;;;;7.23;5.03;;;;;;;24.02;47.18;99151.31;5072401;28;20226;-56
2022/05/24 08:58:13;;;;;;;4.50;4.07;;;;;;;23.94;47.16;99154.28;5072088;28;20283;-56
2022/05/24 09:00:42;;;;;;;6.90;4.70;;;;;;;23.28;48.38;99159.69;5071800;28;20445;-56
2022/05/24 09:03:11;;;;;;;4.77;4.20;;;;;;;23.30;47.68;99157.88;5072061;28;20241;-56
2022/05/24 09:05:40;;;;;;;6.40;4.37;;;;;;;23.41;47.49;99126.84;5072139;28;20198;-56
2022/05/24 09:08:17;;;;;;;4.93;4.53;;;;;;;23.62;48.01;99154.81;5072041;28;20219;-56
2022/05/24 09:10:54;;;;;;;6.38;4.60;;;;;;;23.32;47.60;99142.94;5071744;28;20798;-56
2022/05/24 09:13:43;;;;;;;6.80;4.40;;;;;;;23.36;47.27;99147.13;5072174;28;20210;-56
2022/05/24 09:16:13;;;;;;;8.00;4.50;;;;;;;23.70;47.66;99144.00;5072175;28;20203;-57
2022/05/24 09:18:47;;;;;;;5.27;4.70;;;;;;;24.23;47.02;99150.41;5072090;28;20433;-58
2022/05/24 09:21:19;;;;;;;4.23;3.87;;;;;;;24.70;45.33;99155.28;5071506;28;20226;-57
2022/05/24 09:23:51;;;;;;;7.33;4.00;;;;;;;24.92;44.03;99151.59;5071378;28;20203;-57
2022/05/24 09:26:22;;;;;;;8.97;7.40;;;;;;;25.12;44.09;99151.50;5071749;28;20215;-57
2022/05/24 09:28:52;;;;;;;7.27;4.30;;;;;;;25.43;43.27;99144.75;5072150;28;20982;-56
2022/05/24 09:31:30;;;;;;;6.15;3.83;;;;;;;24.62;43.57;99145.13;5070400;28;20437;-56
2022/05/24 09:33:59;;;;;;;4.37;3.93;;;;;;;24.43;43.87;99141.63;5071315;28;20652;-57
2022/05/24 09:36:37;;;;;;;4.80;3.63;;;;;;;24.09;44.72;99152.78;5071263;28;20194;-57
2022/05/24 09:39:19;;;;;;;5.87;4.23;;;;;;;24.28;44.21;99155.47;5071462;28;20650;-56
2022/05/24 09:41:56;;;;;;;8.13;4.05;;;;;;;24.60;43.67;99139.97;5070531;28;20444;-56
2022/05/24 09:44:24;;;;;;;5.47;4.47;;;;;;;24.81;42.93;99132.00;5071293;28;20191;-56
2022/05/24 09:46:51;;;;;;;4.73;3.27;;;;;;;24.21;43.38;99122.50;5071195;28;20308;-56
2022/05/24 09:49:26;;;;;;;5.50;4.20;;;;;;;24.54;44.21;99120.97;5071889;28;20219;-56
2022/05/24 09:51:56;;;;;;;5.33;4.83;;;;;;;24.85;43.86;99116.03;5071596;28;20191;-56
2022/05/24 09:54:25;;;;;;;6.60;4.67;;;;;;;24.89;43.23;99117.56;5071294;28;20199;-56
2022/05/24 09:57:05;;;;;;;5.50;3.80;;;;;;;24.61;44.11;99130.31;5071379;28;20242;-56
2022/05/24 09:59:32;;;;;;;6.43;3.95;;;;;;;24.67;43.83;99129.16;5070970;28;20448;-56
2022/05/24 10:01:59;;;;;;;8.50;4.50;;;;;;;24.76;44.03;99124.31;5071366;28;20195;-56
2022/05/24 10:04:29;;;;;;;4.30;3.90;;;;;;;24.71;44.42;99121.06;5071412;28;20230;-63
2022/05/24 10:06:58;;;;;;;5.97;4.10;;;;;;;24.55;43.62;99117.44;5071938;28;20211;-64
2022/05/24 10:09:41;;;;;;;7.10;4.30;;;;;;;24.13;45.21;99093.13;5071662;28;21008;-63
2022/05/24 10:12:19;;;;;;;4.60;4.00;;;;;;;24.32;43.73;99075.63;5071399;28;20547;-62
2022/05/24 10:14:55;;;;;;;4.10;3.73;;;;;;;24.72;43.87;99109.63;5071136;28;20196;-62
2022/05/24 10:17:28;;;;;;;10.30;5.60;;;;;;;24.94;43.52;99109.50;5070928;28;20187;-62
2022/05/24 10:20:03;;;;;;;5.60;4.20;;;;;;;24.74;42.62;99122.69;5071255;28;20222;-63
2022/05/24 10:22:43;;;;;;;11.50;4.70;;;;;;;24.67;43.24;99114.22;5070655;28;20198;-63
2022/05/24 10:25:17;;;;;;;6.33;4.00;;;;;;;24.83;42.82;99131.00;5071101;28;20954;-61
2022/05/24 10:27:59;;;;;;;7.80;6.17;;;;;;;25.22;42.75;99125.59;5070897;28;20220;-63
2022/05/24 10:30:31;;;;;;;8.98;4.85;;;;;;;25.60;41.81;99118.50;5070448;28;20446;-61
2022/05/24 10:39:08;;;;;;;4.67;4.27;;;;;;;26.08;40.81;99104.56;5070876;28;20187;-61
2022/05/24 10:41:43;;;;;;;7.88;4.60;;;;;;;26.07;40.20;99100.25;5069697;28;20437;-63
2022/05/24 10:44:17;;;;;;;4.83;3.87;;;;;;;26.19;40.35;99094.34;5071584;28;20179;-63
2022/05/24 10:46:46;;;;;;;15.90;4.33;;;;;;;26.41;40.55;99083.47;5071047;28;20219;-63
2022/05/24 10:49:22;;;;;;;9.20;6.47;;;;;;;26.45;39.73;99080.63;5070915;28;20221;-63
2022/05/24 10:51:54;;;;;;;7.57;4.00;;;;;;;25.99;40.43;99084.81;5070828;28;20661;-62
2022/05/24 10:54:30;;;;;;;9.27;5.70;;;;;;;26.25;40.31;99086.97;5070322;28;20240;-56
2022/05/24 10:57:04;;;;;;;6.37;5.63;;;;;;;26.41;40.68;99079.06;5070775;28;20584;-56
2022/05/24 10:59:42;;;;;;;6.82;4.68;;;;;;;26.68;40.32;99072.28;5069755;28;20434;-56
2022/05/24 11:02:18;;;;;;;8.20;7.03;;;;;;;26.67;40.17;99065.28;5069950;28;20202;-56
2022/05/24 11:04:51;;;;;;;7.00;4.18;;;;;;;26.49;38.96;99068.09;5070057;28;20669;-57
2022/05/24 11:07:20;;;;;;;5.50;4.93;;;;;;;26.31;39.34;99062.06;5069973;28;20219;-57
2022/05/24 11:09:55;;;;;;;8.03;4.67;;;;;;;26.54;38.83;99066.06;5069386;28;20449;-62
2022/05/24 11:12:27;;;;;;;5.40;4.88;;;;;;;26.70;38.88;99059.03;5069430;28;20206;-57
2022/05/24 11:15:02;;;;;;;6.40;4.68;;;;;;;26.64;39.82;99056.72;5070274;28;20272;-63
2022/05/24 11:17:29;;;;;;;5.53;4.63;;;;;;;26.59;39.70;99056.13;5070161;28;20196;-63
2022/05/24 11:19:57;;;;;;;6.20;4.88;;;;;;;26.95;38.91;99039.09;5070130;28;20204;-63
2022/05/24 11:22:32;;;;;;;5.70;4.32;;;;;;;27.28;39.15;99024.88;5069772;28;20195;-63
2022/05/24 11:25:05;;;;;;;10.32;8.02;;;;;;;27.13;39.69;99018.72;5069851;28;20187;-62
2022/05/24 11:27:35;;;;;;;7.67;4.50;;;;;;;27.19;39.18;99018.38;5070073;28;20223;-63
2022/05/24 11:30:12;;;;;;;5.10;4.30;;;;;;;27.11;39.35;98988.97;5069185;28;20496;-64
2022/05/24 11:32:43;;;;;;;5.43;4.68;;;;;;;27.16;39.28;99008.00;5070193;28;20724;-62
2022/05/24 11:35:23;;;;;;;8.70;5.28;;;;;;;26.83;40.16;99012.59;5071292;28;20195;-63
2022/05/24 11:37:52;;;;;;;7.40;4.75;;;;;;;27.11;39.78;99012.72;5070207;28;20187;-62
2022/05/24 11:40:30;;;;;;;8.10;4.80;;;;;;;26.77;40.88;99010.28;5068608;28;20449;-63
2022/05/24 11:42:59;;;;;;;5.78;5.28;;;;;;;27.02;40.77;99018.50;5069887;28;20654;-62
2022/05/24 11:45:59;;;;;;;4.38;3.90;;;;;;;27.16;40.35;99023.81;5069910;28;20245;-63
2022/05/24 11:48:48;;;;;;;6.80;6.10;;;;;;;27.18;40.97;99024.59;5069761;28;20685;-63
2022/05/24 11:51:37;;;;;;;7.32;4.82;;;;;;;27.02;41.32;99031.69;5070009;28;20196;-63
2022/05/24 11:54:27;;;;;;;6.25;5.18;;;;;;;26.96;41.33;99032.03;5070370;28;20195;-63
2022/05/24 11:56:55;;;;;;;6.35;5.10;;;;;;;27.10;40.85;99037.38;5069717;28;20198;-63
2022/05/24 11:59:51;;;;;;;7.47;5.57;;;;;;;27.18;41.72;99040.41;5068973;28;20475;-63
2022/05/24 12:08:31;;;;;;;9.13;5.35;;;;;;;26.74;44.15;99053.47;5069403;28;20444;-63
2022/05/24 12:11:14;;;;;;;10.80;5.45;;;;;;;27.00;43.79;99067.88;5070160;28;20192;-63
2022/05/24 12:14:12;;;;;;;5.55;5.05;;;;;;;26.88;43.76;99066.78;5069752;28;20191;-63
2022/05/24 12:16:45;;;;;;;5.93;5.20;;;;;;;26.28;44.87;99070.16;5048376;28;20195;-63
2022/05/24 12:19:33;;;;;;;7.03;5.30;;;;;;;26.15;45.11;99014.63;5069658;28;20238;-63
2022/05/24 12:22:06;;;;;;;8.80;4.93;;;;;;;26.59;45.10;99059.59;5069146;28;20274;-62
2022/05/24 12:24:53;;;;;;;6.40;5.53;;;;;;;26.83;45.05;99062.69;5072427;28;20234;-56
2022/05/24 12:27:23;;;;;;;5.55;5.00;;;;;;;27.17;44.04;99062.44;5073306;28;20218;-57
2022/05/24 12:29:53;;;;;;;8.35;5.80;;;;;;;27.68;43.41;99055.06;5072123;28;20847;-56
2022/05/24 12:32:22;;;;;;;5.57;5.07;;;;;;;27.84;42.55;99058.47;5073385;28;20195;-56
2022/05/24 12:34:49;;;;;;;9.38;5.22;;;;;;;27.82;43.11;99055.94;5072971;28;20548;-57